Time;durP1;ratioP1;P1;durP2;ratioP2;P2;SDS_P1;SDS_P2;PMS_P1;PMS_P2;Temp;Humidity;BMP_temperature;BMP_pressure;BME280_temperature;BME280_humidity;BME280_pressure;Samples;Min_cycle;Max_cycle;Signal;HPM_P1;HPM_P2
2023/03/12 00:01:39;;;;;;;4.43;1.13;;;;;;;0.46;69.02;100459.88;4953754;28;20583;-79
2023/03/12 00:04:06;;;;;;;3.50;1.07;;;;;;;0.45;69.39;100460.78;4952383;28;20217;-79
2023/03/12 00:06:32;;;;;;;1.90;1.50;;;;;;;0.45;69.34;100459.91;4952039;28;20636;-81
2023/03/12 00:09:00;;;;;;;1.43;1.30;;;;;;;0.42;69.43;100467.84;4952928;28;20220;-81
2023/03/12 00:11:27;;;;;;;2.90;1.43;;;;;;;0.44;69.45;100466.91;4955130;28;20216;-79
2023/03/12 00:13:57;;;;;;;2.60;1.47;;;;;;;0.43;69.33;100469.56;4954865;28;20240;-82
2023/03/12 00:16:24;;;;;;;2.30;1.10;;;;;;;0.43;69.37;100474.81;4950842;28;20209;-82
2023/03/12 00:18:52;;;;;;;4.37;2.13;;;;;;;0.42;69.39;100478.31;4957183;28;20205;-81
2023/03/12 00:21:20;;;;;;;4.40;1.40;;;;;;;0.42;69.48;100479.19;4951029;29;20201;-81
2023/03/12 00:23:47;;;;;;;3.00;1.20;;;;;;;0.44;69.45;100481.78;4949965;28;20212;-81
2023/03/12 00:26:15;;;;;;;3.57;1.70;;;;;;;0.44;69.25;100484.38;4953309;28;20617;-81
2023/03/12 00:28:42;;;;;;;3.13;1.30;;;;;;;0.42;69.22;100480.94;4952729;28;20209;-81
2023/03/12 00:31:18;;;;;;;3.73;1.53;;;;;;;0.41;69.43;100481.84;4949286;28;20209;-81
2023/03/12 00:33:45;;;;;;;4.47;1.40;;;;;;;0.38;69.57;100481.91;4954565;28;20231;-80
2023/03/12 00:36:11;;;;;;;2.63;1.40;;;;;;;0.37;69.56;100481.03;4944957;28;20225;-80
2023/03/12 00:38:38;;;;;;;1.60;1.07;;;;;;;0.37;69.41;100485.41;4952128;28;20217;-81
2023/03/12 00:41:04;;;;;;;3.50;1.50;;;;;;;0.35;69.57;100477.63;4952013;28;20687;-80
2023/03/12 00:43:31;;;;;;;3.50;2.10;;;;;;;0.34;69.40;100474.16;4954709;28;20233;-81
2023/03/12 00:45:57;;;;;;;5.70;1.57;;;;;;;0.33;69.39;100475.03;4953120;28;20212;-80
2023/03/12 00:48:25;;;;;;;7.27;1.83;;;;;;;0.32;69.63;100472.47;4954949;28;20236;-80
2023/03/12 00:50:52;;;;;;;3.60;1.70;;;;;;;0.31;69.67;100470.75;4956602;28;20233;-80
2023/03/12 00:53:18;;;;;;;2.37;1.17;;;;;;;0.31;69.55;100478.59;4953590;28;20239;-79
2023/03/12 00:55:45;;;;;;;3.43;1.40;;;;;;;0.28;69.73;100479.53;4953112;28;20212;-80
2023/03/12 00:58:11;;;;;;;2.67;1.40;;;;;;;0.28;69.74;100470.81;4951749;28;20239;-79
2023/03/12 01:00:38;;;;;;;3.20;1.37;;;;;;;0.28;70.01;100463.81;4945592;28;20202;-79
2023/03/12 01:03:04;;;;;;;3.60;1.30;;;;;;;0.27;69.98;100463.84;4952898;28;20209;-79
2023/03/12 01:05:36;;;;;;;2.70;1.30;;;;;;;0.26;69.86;100459.50;4956264;28;20205;-80
2023/03/12 01:08:03;;;;;;;2.17;1.80;;;;;;;0.26;69.77;100462.13;4954565;28;20251;-80
2023/03/12 01:10:30;;;;;;;2.23;1.43;;;;;;;0.25;69.68;100457.78;4952002;28;20219;-80
2023/03/12 01:12:56;;;;;;;4.23;1.60;;;;;;;0.25;69.80;100457.78;4953099;28;20280;-80
2023/03/12 01:15:23;;;;;;;3.10;1.50;;;;;;;0.24;69.77;100461.28;4956127;28;20220;-80
2023/03/12 01:17:50;;;;;;;3.13;1.83;;;;;;;0.23;69.78;100463.06;4958836;28;20235;-80
2023/03/12 01:20:16;;;;;;;6.00;1.90;;;;;;;0.22;70.06;100460.47;4917175;28;1056137;-80
2023/03/12 01:22:46;;;;;;;4.57;2.00;;;;;;;0.21;69.84;100462.22;4949632;28;20683;-79
2023/03/12 01:25:12;;;;;;;2.83;1.77;;;;;;;0.19;69.75;100463.16;4954478;28;20220;-79
2023/03/12 01:27:39;;;;;;;3.40;1.57;;;;;;;0.19;69.52;100461.41;4954027;28;20232;-80
2023/03/12 01:30:07;;;;;;;3.20;1.30;;;;;;;0.17;69.78;100457.97;4952785;28;20205;-80
2023/03/12 01:32:33;;;;;;;5.17;1.60;;;;;;;0.16;69.80;100455.41;4954516;28;20228;-80
2023/03/12 01:35:00;;;;;;;2.90;1.60;;;;;;;0.15;69.78;100461.53;4950648;29;20293;-79
2023/03/12 01:37:27;;;;;;;2.33;1.43;;;;;;;0.15;69.90;100453.69;4955537;28;20228;-80
2023/03/12 01:39:55;;;;;;;4.13;1.63;;;;;;;0.14;69.84;100449.34;4955095;28;20224;-80
2023/03/12 01:42:21;;;;;;;4.23;1.60;;;;;;;0.11;69.94;100446.78;4959104;28;20197;-79
2023/03/12 01:44:50;;;;;;;2.77;1.63;;;;;;;0.11;70.03;100446.78;4955886;28;20208;-80
2023/03/12 01:47:16;;;;;;;4.87;1.50;;;;;;;0.10;70.05;100440.69;4954007;28;20225;-80
2023/03/12 01:49:43;;;;;;;4.83;1.80;;;;;;;0.07;70.23;100443.38;4954470;28;20216;-80
2023/03/12 01:52:13;;;;;;;5.27;1.47;;;;;;;0.05;70.54;100436.44;4954851;28;20671;-80
2023/03/12 01:54:44;;;;;;;4.97;1.70;;;;;;;0.06;70.29;100439.03;4947698;28;20209;-80
2023/03/12 01:57:16;;;;;;;3.50;1.80;;;;;;;0.06;70.40;100440.78;4950904;28;20234;-80
2023/03/12 01:59:46;;;;;;;3.37;1.43;;;;;;;0.03;70.17;100433.00;4952640;28;20209;-79
2023/03/12 02:02:14;;;;;;;3.23;1.60;;;;;;;0.00;70.44;100434.78;4954267;28;20212;-80
2023/03/12 02:04:44;;;;;;;3.07;1.30;;;;;;;0.00;70.17;100429.56;4951442;28;20205;-80
2023/03/12 02:07:12;;;;;;;2.93;1.70;;;;;;;0.00;70.64;100437.41;4954459;28;20629;-81
2023/03/12 02:09:42;;;;;;;1.93;1.37;;;;;;;0.00;70.51;100432.16;4954572;28;20202;-80
2023/03/12 02:12:09;;;;;;;3.00;1.37;;;;;;;-0.03;70.39;100429.66;4952643;28;20571;-80
2023/03/12 02:14:38;;;;;;;2.87;1.27;;;;;;;-0.03;70.40;100426.19;4954466;28;20723;-80
2023/03/12 02:17:05;;;;;;;3.20;1.20;;;;;;;-0.04;70.33;100425.31;4958034;28;20229;-80
2023/03/12 02:19:43;;;;;;;4.90;1.30;;;;;;;-0.07;70.31;100427.13;4954322;28;20233;-80
2023/03/12 02:22:11;;;;;;;3.63;1.53;;;;;;;-0.08;70.29;100430.66;4958279;28;20207;-81
2023/03/12 02:24:44;;;;;;;2.23;1.50;;;;;;;-0.09;70.49;100428.91;4953384;28;20366;-81
2023/03/12 02:27:12;;;;;;;4.77;1.53;;;;;;;-0.11;70.47;100426.34;4945534;28;20225;-81
2023/03/12 02:29:41;;;;;;;3.97;1.60;;;;;;;-0.13;70.21;100427.25;4949088;28;20648;-81
2023/03/12 02:32:13;;;;;;;4.27;1.70;;;;;;;-0.14;70.90;100425.53;4948934;28;20205;-81
2023/03/12 02:34:39;;;;;;;3.60;1.43;;;;;;;-0.17;70.43;100431.72;4948561;28;20245;-81
2023/03/12 02:37:05;;;;;;;3.90;1.90;;;;;;;-0.19;70.59;100420.44;4945930;28;20248;-81
2023/03/12 02:39:32;;;;;;;2.90;1.47;;;;;;;-0.21;70.59;100424.84;4949916;28;20217;-81
2023/03/12 02:42:00;;;;;;;2.37;1.40;;;;;;;-0.22;70.63;100423.13;4949945;28;20243;-80
2023/03/12 02:44:30;;;;;;;1.97;1.57;;;;;;;-0.25;70.22;100420.56;4949458;29;20213;-80
2023/03/12 02:46:58;;;;;;;2.87;1.70;;;;;;;-0.27;70.72;100424.97;4942542;28;20606;-80
2023/03/12 02:49:28;;;;;;;2.97;1.40;;;;;;;-0.31;70.61;100420.69;4954596;28;20205;-80
2023/03/12 02:51:56;;;;;;;3.70;1.50;;;;;;;-0.33;70.93;100424.25;4948521;29;20215;-80
2023/03/12 02:54:23;;;;;;;3.90;1.53;;;;;;;-0.36;71.09;100427.81;4949614;28;20233;-79
2023/03/12 02:56:50;;;;;;;2.47;1.73;;;;;;;-0.37;71.00;100423.47;4952865;28;20236;-79
2023/03/12 02:59:19;;;;;;;3.53;1.43;;;;;;;-0.41;70.65;100411.34;4946254;28;20409;-79
2023/03/12 03:01:51;;;;;;;2.27;1.40;;;;;;;-0.42;70.97;100422.72;4954031;28;20269;-79
2023/03/12 03:04:17;;;;;;;6.03;1.73;;;;;;;-0.45;70.96;100421.00;4952150;28;20209;-79
2023/03/12 03:06:46;;;;;;;2.60;1.40;;;;;;;-0.48;71.36;100421.06;4955961;28;20232;-79
2023/03/12 03:09:12;;;;;;;4.10;1.40;;;;;;;-0.49;71.51;100421.09;4950426;28;20574;-79
2023/03/12 03:11:39;;;;;;;1.90;1.30;;;;;;;-0.52;71.55;100423.78;4954232;28;20571;-79
2023/03/12 03:14:06;;;;;;;5.00;1.60;;;;;;;-0.57;71.44;100429.13;4952469;28;20292;-79
2023/03/12 03:16:34;;;;;;;2.90;1.90;;;;;;;-0.59;71.42;100428.31;4952124;28;20265;-79
2023/03/12 03:19:02;;;;;;;3.23;1.60;;;;;;;-0.61;71.75;100432.72;4945988;28;20215;-80
2023/03/12 03:21:29;;;;;;;3.60;1.60;;;;;;;-0.64;72.04;100429.28;4947060;28;20691;-79
2023/03/12 03:23:55;;;;;;;2.10;1.40;;;;;;;-0.66;71.96;100431.06;4945356;28;20237;-80
2023/03/12 03:26:24;;;;;;;4.10;1.83;;;;;;;-0.70;72.06;100430.28;4953286;28;20213;-79
2023/03/12 03:28:50;;;;;;;3.50;1.70;;;;;;;-0.72;72.58;100432.91;4949907;29;20209;-79
2023/03/12 03:31:17;;;;;;;4.53;1.77;;;;;;;-0.76;72.47;100436.50;4954125;28;20209;-79
2023/03/12 03:33:44;;;;;;;4.30;1.63;;;;;;;-0.78;72.98;100429.59;4952442;28;20237;-79
2023/03/12 03:36:13;;;;;;;3.37;1.70;;;;;;;-0.82;72.98;100439.25;4945369;28;20212;-79
2023/03/12 03:38:40;;;;;;;4.67;1.60;;;;;;;-0.84;73.42;100443.63;4947473;28;20224;-80
2023/03/12 03:41:07;;;;;;;3.10;1.60;;;;;;;-0.87;73.44;100427.13;4951420;28;20209;-79
2023/03/12 03:43:33;;;;;;;3.50;1.83;;;;;;;-0.91;73.74;100436.81;4944384;28;20228;-80
2023/03/12 03:46:01;;;;;;;2.47;1.93;;;;;;;-0.95;73.83;100443.00;4951442;28;20667;-79
2023/03/12 03:48:28;;;;;;;3.90;1.80;;;;;;;-0.98;73.70;100439.56;4950187;28;20233;-79
2023/03/12 03:50:54;;;;;;;3.27;1.60;;;;;;;-1.01;74.02;100437.03;4952298;28;20219;-80
2023/03/12 03:53:22;;;;;;;3.20;1.63;;;;;;;-1.05;74.36;100446.66;4956106;28;20232;-79
2023/03/12 03:55:48;;;;;;;3.30;1.90;;;;;;;-1.08;74.52;100433.69;4943735;28;20201;-79
2023/03/12 03:58:15;;;;;;;4.73;2.50;;;;;;;-1.11;74.31;100441.56;4951985;28;20236;-79
2023/03/12 04:00:44;;;;;;;2.10;1.87;;;;;;;-1.14;74.39;100447.72;4950867;28;20201;-80
2023/03/12 04:03:10;;;;;;;3.03;1.83;;;;;;;-1.16;75.09;100446.03;4948026;28;20205;-79
2023/03/12 04:05:37;;;;;;;3.43;1.83;;;;;;;-1.20;74.60;100437.38;4946506;28;20217;-79
2023/03/12 04:08:04;;;;;;;4.67;2.13;;;;;;;-1.23;75.43;100437.41;4953765;28;20724;-79
2023/03/12 04:10:32;;;;;;;2.67;1.77;;;;;;;-1.25;75.83;100439.19;4954887;28;20200;-79
2023/03/12 04:12:58;;;;;;;3.57;1.70;;;;;;;-1.25;75.59;100443.56;4941748;28;20622;-79
2023/03/12 04:15:25;;;;;;;4.93;1.83;;;;;;;-1.30;75.78;100438.44;4951349;28;20713;-80
2023/03/12 04:17:51;;;;;;;4.13;1.77;;;;;;;-1.37;75.97;100431.59;4956115;28;20233;-79
2023/03/12 04:20:18;;;;;;;3.60;1.70;;;;;;;-1.45;76.23;100429.16;4953842;28;20707;-79
2023/03/12 04:22:44;;;;;;;2.73;1.80;;;;;;;-1.52;75.67;100435.34;4950503;28;20564;-80
2023/03/12 04:25:11;;;;;;;2.53;1.90;;;;;;;-1.59;75.94;100428.50;4950309;28;20664;-80
2023/03/12 04:27:38;;;;;;;3.07;1.90;;;;;;;-1.65;76.24;100431.25;4942634;28;20244;-80
2023/03/12 04:30:06;;;;;;;2.27;1.50;;;;;;;-1.69;76.54;100437.41;4947513;28;20216;-80
2023/03/12 04:32:32;;;;;;;2.40;1.40;;;;;;;-1.73;76.85;100433.09;4949708;28;20209;-80
2023/03/12 04:34:59;;;;;;;3.53;2.07;;;;;;;-1.76;76.39;100430.53;4944537;28;20225;-79
2023/03/12 04:37:25;;;;;;;3.83;1.50;;;;;;;-1.79;76.64;100439.28;4952513;28;20221;-80
2023/03/12 04:39:52;;;;;;;3.77;2.43;;;;;;;-1.81;77.09;100435.00;4949495;28;20205;-79
2023/03/12 04:42:18;;;;;;;2.30;1.73;;;;;;;-1.85;77.31;100435.94;4956501;28;20201;-79
2023/03/12 04:44:46;;;;;;;4.30;1.70;;;;;;;-1.90;77.24;100438.59;4950299;28;20217;-79
2023/03/12 04:47:12;;;;;;;2.30;1.97;;;;;;;-1.93;77.37;100424.72;4955388;28;20730;-79
2023/03/12 04:49:39;;;;;;;3.27;2.10;;;;;;;-1.96;77.44;100427.38;4955401;28;20704;-79
2023/03/12 04:52:06;;;;;;;3.97;1.70;;;;;;;-1.99;78.34;100419.63;4951170;28;20205;-79
2023/03/12 04:54:32;;;;;;;5.33;2.17;;;;;;;-2.02;78.46;100425.75;4949713;28;20232;-79
2023/03/12 04:56:59;;;;;;;3.53;1.90;;;;;;;-2.03;78.32;100423.16;4958836;28;20220;-79
2023/03/12 04:59:25;;;;;;;5.63;1.87;;;;;;;-2.04;78.90;100426.66;4957181;29;20220;-80
2023/03/12 05:01:53;;;;;;;2.70;1.60;;;;;;;-2.05;79.24;100425.81;4957473;28;20582;-79
2023/03/12 05:04:20;;;;;;;4.53;1.57;;;;;;;-2.05;78.90;100431.03;4952606;28;20207;-78
2023/03/12 05:06:46;;;;;;;3.63;1.80;;;;;;;-2.06;79.16;100425.81;4957793;28;20233;-79
2023/03/12 05:09:13;;;;;;;3.03;1.87;;;;;;;-2.06;79.60;100428.44;4952531;28;20213;-79
2023/03/12 05:11:39;;;;;;;3.73;2.07;;;;;;;-2.06;79.53;100431.91;4949970;28;20791;-79
2023/03/12 05:14:05;;;;;;;3.47;1.90;;;;;;;-2.05;79.77;100424.94;4956051;28;20225;-79
2023/03/12 05:16:32;;;;;;;2.27;1.70;;;;;;;-2.04;80.19;100416.22;4956147;28;20229;-80
2023/03/12 05:19:01;;;;;;;3.10;1.90;;;;;;;-2.04;80.49;100422.31;4958066;28;20200;-79
2023/03/12 05:21:27;;;;;;;3.27;1.93;;;;;;;-2.04;80.21;100419.69;4955658;28;20271;-79
2023/03/12 05:23:54;;;;;;;4.60;2.37;;;;;;;-2.02;80.60;100419.69;4953184;28;20242;-80
2023/03/12 05:26:22;;;;;;;3.13;2.10;;;;;;;-2.02;81.08;100415.31;4950486;28;20205;-79
2023/03/12 05:28:49;;;;;;;4.90;1.73;;;;;;;-2.01;80.86;100418.78;4956093;28;20228;-80
2023/03/12 05:31:17;;;;;;;4.00;2.10;;;;;;;-2.00;80.66;100410.94;4954827;28;20671;-79
2023/03/12 05:33:44;;;;;;;3.73;1.97;;;;;;;-1.99;81.13;100404.84;4953548;28;20244;-78
2023/03/12 05:36:12;;;;;;;2.40;1.67;;;;;;;-1.97;81.30;100402.22;4953006;28;20208;-79
2023/03/12 05:38:41;;;;;;;5.17;2.30;;;;;;;-1.95;81.47;100403.00;4954274;28;20201;-79
2023/03/12 05:41:09;;;;;;;4.87;2.80;;;;;;;-1.94;81.23;100404.75;4956104;29;20892;-79
2023/03/12 05:43:36;;;;;;;5.33;2.40;;;;;;;-1.91;81.65;100408.16;4953581;28;20202;-79
2023/03/12 05:46:04;;;;;;;3.97;2.30;;;;;;;-1.88;81.83;100409.88;4957835;28;20660;-80
2023/03/12 05:48:31;;;;;;;3.63;2.33;;;;;;;-1.86;81.71;100405.50;4955452;28;20228;-79
2023/03/12 05:50:58;;;;;;;6.03;2.20;;;;;;;-1.83;81.86;100403.69;4951898;28;20222;-79
2023/03/12 05:53:26;;;;;;;3.70;2.00;;;;;;;-1.80;81.80;100393.22;4955142;28;20220;-79
2023/03/12 05:55:52;;;;;;;4.13;2.10;;;;;;;-1.76;82.12;100394.00;4956264;28;20205;-79
2023/03/12 05:58:19;;;;;;;2.63;1.87;;;;;;;-1.74;82.07;100387.00;4955400;28;20224;-79
2023/03/12 06:00:45;;;;;;;5.10;2.23;;;;;;;-1.71;81.94;100383.47;4948618;28;20225;-79
2023/03/12 06:03:13;;;;;;;3.57;2.43;;;;;;;-1.68;82.42;100381.69;4952042;28;20213;-80
2023/03/12 06:05:39;;;;;;;4.33;2.43;;;;;;;-1.65;82.12;100365.97;4955317;28;20202;-80
2023/03/12 06:08:06;;;;;;;5.03;1.90;;;;;;;-1.61;82.62;100375.44;4953296;28;20229;-82
2023/03/12 06:10:34;;;;;;;5.90;2.17;;;;;;;-1.58;82.46;100372.78;4955262;28;20233;-79
2023/03/12 06:13:00;;;;;;;4.03;2.50;;;;;;;-1.55;82.31;100377.94;4956526;28;20213;-80
2023/03/12 06:15:26;;;;;;;4.47;2.40;;;;;;;-1.53;82.47;100383.16;4959081;28;20632;-80
2023/03/12 06:17:53;;;;;;;6.93;2.30;;;;;;;-1.51;82.12;100381.38;4956977;28;20570;-80
2023/03/12 06:20:20;;;;;;;5.70;2.37;;;;;;;-1.48;81.99;100376.09;4953225;28;20213;-79
2023/03/12 06:22:46;;;;;;;5.30;2.53;;;;;;;-1.47;82.50;100381.28;4956179;28;20209;-80
2023/03/12 06:25:12;;;;;;;3.37;2.20;;;;;;;-1.45;82.10;100376.91;4951516;28;20213;-79
2023/03/12 06:27:40;;;;;;;3.63;2.30;;;;;;;-1.41;82.39;100364.63;4956657;28;20229;-80
2023/03/12 06:30:08;;;;;;;13.40;2.67;;;;;;;-1.37;82.00;100368.91;4954604;28;20291;-79
2023/03/12 06:32:35;;;;;;;4.40;2.40;;;;;;;-1.33;82.33;100364.50;4956473;28;20208;-78
2023/03/12 06:35:03;;;;;;;4.43;2.53;;;;;;;-1.31;82.02;100358.34;4953207;28;20239;-79
2023/03/12 06:37:29;;;;;;;4.10;2.30;;;;;;;-1.27;82.34;100359.16;4951210;28;20229;-79
2023/03/12 06:39:56;;;;;;;4.73;2.47;;;;;;;-1.25;82.10;100355.59;4953273;28;20205;-80
2023/03/12 06:42:22;;;;;;;4.77;2.63;;;;;;;-1.22;81.64;100349.44;4963783;28;20208;-79
2023/03/12 06:44:51;;;;;;;4.03;2.40;;;;;;;-1.22;82.23;100345.09;4956094;28;20656;-80
2023/03/12 06:47:17;;;;;;;4.00;2.80;;;;;;;-1.19;82.30;100345.03;4958578;28;20613;-79
2023/03/12 06:49:44;;;;;;;7.20;2.90;;;;;;;-1.17;82.20;100337.16;4956387;28;20220;-79
2023/03/12 06:52:10;;;;;;;3.73;2.40;;;;;;;-1.16;82.15;100331.03;4952867;28;20219;-79
2023/03/12 06:54:37;;;;;;;3.30;2.37;;;;;;;-1.12;82.44;100335.31;4955536;28;20236;-79
2023/03/12 06:57:04;;;;;;;4.93;2.80;;;;;;;-1.07;82.38;100336.06;4955296;28;20236;-79
2023/03/12 06:59:30;;;;;;;3.70;2.43;;;;;;;-1.06;82.26;100336.03;4951507;28;20202;-80
2023/03/12 07:01:58;;;;;;;3.30;2.60;;;;;;;-0.99;82.39;100333.31;4950381;28;20308;-80
2023/03/12 07:04:25;;;;;;;4.73;2.57;;;;;;;-0.95;81.96;100329.72;4952169;29;20217;-80
2023/03/12 07:06:51;;;;;;;3.03;1.97;;;;;;;-0.89;81.75;100322.59;4953912;28;20231;-79
2023/03/12 07:09:17;;;;;;;3.67;2.33;;;;;;;-0.84;81.86;100325.97;4954322;28;20209;-80
2023/03/12 07:11:44;;;;;;;3.87;2.40;;;;;;;-0.80;81.46;100329.41;4945556;28;20213;-81
2023/03/12 07:14:11;;;;;;;3.80;2.53;;;;;;;-0.75;81.41;100333.63;4950413;28;20232;-80
2023/03/12 07:16:38;;;;;;;4.70;2.13;;;;;;;-0.71;81.03;100319.56;4953625;28;20251;-81
2023/03/12 07:19:05;;;;;;;4.07;2.20;;;;;;;-0.65;81.11;100322.97;4954029;28;20208;-80
2023/03/12 07:21:32;;;;;;;3.50;2.13;;;;;;;-0.61;80.60;100317.63;4951582;28;20291;-80
2023/03/12 07:23:59;;;;;;;3.63;2.27;;;;;;;-0.54;80.78;100318.34;4958219;28;20220;-80
2023/03/12 07:26:26;;;;;;;3.67;2.23;;;;;;;-0.48;80.57;100321.66;4954084;28;20208;-81
2023/03/12 07:28:52;;;;;;;2.43;2.00;;;;;;;-0.43;80.50;100324.19;4953884;28;20232;-81
2023/03/12 07:31:19;;;;;;;3.77;2.17;;;;;;;-0.38;80.04;100322.31;4948573;28;20220;-81
2023/03/12 07:33:45;;;;;;;3.27;2.10;;;;;;;-0.32;79.96;100309.06;4950138;28;20217;-80
2023/03/12 07:36:13;;;;;;;4.47;2.20;;;;;;;-0.27;79.75;100309.84;4945077;28;20244;-80
2023/03/12 07:38:39;;;;;;;3.67;2.30;;;;;;;-0.19;79.78;100317.50;4953093;28;20703;-79
2023/03/12 07:41:06;;;;;;;3.07;2.10;;;;;;;-0.13;79.63;100307.72;4948012;28;20209;-79
2023/03/12 07:43:32;;;;;;;4.67;2.50;;;;;;;-0.04;79.64;100309.28;4954664;28;20217;-79
2023/03/12 07:45:59;;;;;;;4.40;2.27;;;;;;;0.07;79.16;100314.22;4955308;28;20239;-80
2023/03/12 07:48:25;;;;;;;5.53;2.47;;;;;;;0.14;79.24;100315.78;4947792;29;20228;-80
2023/03/12 07:50:52;;;;;;;8.07;4.03;;;;;;;0.22;78.95;100311.19;4952060;28;20209;-81
2023/03/12 07:53:19;;;;;;;6.13;3.13;;;;;;;0.31;78.54;100303.09;4951203;28;20224;-79
2023/03/12 07:55:47;;;;;;;5.40;2.47;;;;;;;0.39;77.80;100310.72;4950384;28;20225;-81
2023/03/12 07:58:14;;;;;;;3.77;1.90;;;;;;;0.44;77.55;100303.63;4949812;28;20244;-81
2023/03/12 08:00:41;;;;;;;4.80;2.63;;;;;;;0.51;77.20;100310.41;4951585;28;20208;-81
2023/03/12 08:03:07;;;;;;;4.30;2.40;;;;;;;0.57;76.67;100310.22;4949342;28;20221;-80
2023/03/12 08:05:34;;;;;;;5.03;2.20;;;;;;;0.63;76.70;100317.94;4949559;28;20201;-80
2023/03/12 08:08:00;;;;;;;5.87;2.60;;;;;;;0.69;75.93;100313.38;4954002;28;20239;-80
2023/03/12 08:10:28;;;;;;;3.00;1.90;;;;;;;0.76;75.95;100313.19;4949954;28;20212;-80
2023/03/12 08:12:54;;;;;;;7.83;1.70;;;;;;;0.82;75.70;100310.41;4949363;28;20590;-80
2023/03/12 08:15:21;;;;;;;4.77;2.17;;;;;;;0.85;75.32;100300.69;4949923;28;20228;-81
2023/03/12 08:17:47;;;;;;;3.67;2.67;;;;;;;0.91;74.79;100297.00;4948941;28;20240;-81
2023/03/12 08:20:14;;;;;;;2.53;2.33;;;;;;;0.95;74.61;100312.63;4951297;28;20587;-80
2023/03/12 08:22:41;;;;;;;3.10;1.93;;;;;;;0.99;74.15;100303.75;4953318;28;20201;-81
2023/03/12 08:25:08;;;;;;;3.20;1.40;;;;;;;1.07;73.77;100302.69;4949355;28;20579;-80
2023/03/12 08:27:37;;;;;;;4.33;1.60;;;;;;;1.11;73.21;100292.03;4949803;28;20687;-80
2023/03/12 08:30:05;;;;;;;2.23;1.30;;;;;;;1.16;72.95;100292.75;4952616;28;20221;-81
2023/03/12 08:32:31;;;;;;;2.30;1.50;;;;;;;1.22;72.60;100292.59;4955235;28;20208;-80
2023/03/12 08:34:58;;;;;;;3.93;1.73;;;;;;;1.28;72.69;100287.13;4953436;28;20237;-81
2023/03/12 08:37:26;;;;;;;4.43;1.70;;;;;;;1.33;72.42;100282.59;4953669;28;20232;-81
2023/03/12 08:39:53;;;;;;;2.77;1.50;;;;;;;1.37;71.60;100284.22;4955510;28;20668;-81
2023/03/12 08:42:19;;;;;;;2.33;1.40;;;;;;;1.41;71.51;100284.13;4957215;28;20213;-80
2023/03/12 08:44:50;;;;;;;5.80;2.47;;;;;;;1.43;71.35;100287.56;4957791;28;20216;-80
2023/03/12 08:47:16;;;;;;;2.43;1.60;;;;;;;1.48;70.89;100290.88;4958298;28;20225;-81
2023/03/12 08:49:43;;;;;;;3.17;1.50;;;;;;;1.52;70.61;100285.50;4956488;28;20625;-81
2023/03/12 08:52:09;;;;;;;5.63;2.60;;;;;;;1.54;71.10;100291.56;4955193;28;20208;-81
2023/03/12 08:54:36;;;;;;;5.00;2.00;;;;;;;1.59;70.76;100283.53;4956195;28;20228;-81
2023/03/12 08:57:02;;;;;;;3.07;1.37;;;;;;;1.62;70.63;100280.78;4954667;28;20224;-81
2023/03/12 08:59:36;;;;;;;3.00;2.33;;;;;;;1.66;70.13;100295.53;4953642;28;20397;-81
2023/03/12 09:02:06;;;;;;;4.17;1.57;;;;;;;1.71;69.83;100285.75;4953490;28;20225;-81
2023/03/12 09:04:32;;;;;;;4.07;1.50;;;;;;;1.76;69.56;100281.22;4951257;28;20216;-81
2023/03/12 09:07:01;;;;;;;2.63;1.67;;;;;;;1.80;69.42;100288.06;4952347;28;20225;-81
2023/03/12 09:09:28;;;;;;;3.03;1.77;;;;;;;1.85;68.86;100295.78;4951956;28;20210;-82
2023/03/12 09:11:54;;;;;;;3.67;1.70;;;;;;;1.89;68.11;100289.53;4955634;28;20216;-80
2023/03/12 09:14:21;;;;;;;3.20;1.63;;;;;;;1.93;68.15;100296.41;4957045;28;20728;-81
2023/03/12 09:16:50;;;;;;;2.93;2.00;;;;;;;1.97;67.71;100290.97;4959960;28;20260;-81
2023/03/12 09:19:19;;;;;;;5.57;2.13;;;;;;;2.02;67.92;100301.34;4954358;29;20858;-83
2023/03/12 09:21:45;;;;;;;3.67;2.17;;;;;;;2.06;67.75;100303.81;4955213;28;20217;-80
2023/03/12 09:24:12;;;;;;;6.03;2.83;;;;;;;2.11;67.89;100302.81;4954185;28;20209;-80
2023/03/12 09:26:38;;;;;;;5.40;3.50;;;;;;;2.19;67.07;100308.66;4959170;28;20686;-82
2023/03/12 09:29:07;;;;;;;8.43;5.33;;;;;;;2.23;66.82;100302.38;4956514;28;20575;-82
2023/03/12 09:31:35;;;;;;;7.80;4.90;;;;;;;2.25;66.75;100305.81;4959489;28;20277;-81
2023/03/12 09:34:01;;;;;;;6.80;4.27;;;;;;;2.31;66.70;100305.63;4957448;28;20595;-81
2023/03/12 09:36:31;;;;;;;4.47;2.80;;;;;;;2.38;65.81;100297.44;4960466;28;20630;-82
2023/03/12 09:38:59;;;;;;;4.23;2.27;;;;;;;2.44;65.39;100304.25;4950890;28;20212;-82
2023/03/12 09:41:29;;;;;;;3.93;1.73;;;;;;;2.46;65.77;100299.81;4955950;28;20213;-82
2023/03/12 09:44:02;;;;;;;2.33;1.67;;;;;;;2.48;65.63;100290.09;4956972;28;20205;-82
2023/03/12 09:46:35;;;;;;;3.23;1.90;;;;;;;2.51;65.05;100284.72;4956149;28;20239;-82
2023/03/12 09:49:06;;;;;;;3.20;1.37;;;;;;;2.54;65.25;100281.13;4959213;28;20204;-82
2023/03/12 09:51:40;;;;;;;3.50;1.70;;;;;;;2.58;64.45;100274.84;4958380;28;20213;-82
2023/03/12 09:54:21;;;;;;;3.03;1.40;;;;;;;2.66;64.22;100257.88;4956261;28;20689;-81
2023/03/12 09:56:50;;;;;;;3.23;1.60;;;;;;;2.73;64.17;100254.09;4956376;28;20232;-83
2023/03/12 09:59:17;;;;;;;3.43;1.23;;;;;;;2.82;64.37;100254.69;4955893;28;20209;-83
2023/03/12 10:01:52;;;;;;;2.13;1.37;;;;;;;2.89;63.56;100245.63;4955955;28;20281;-82
2023/03/12 10:04:37;;;;;;;2.53;0.97;;;;;;;2.95;64.15;100235.72;4952811;28;20585;-83
2023/03/12 10:07:12;;;;;;;3.50;1.30;;;;;;;2.99;64.11;100234.69;4955803;28;20235;-83
2023/03/12 10:10:03;;;;;;;2.43;1.30;;;;;;;3.09;63.64;100216.78;4955687;28;20213;-82
2023/03/12 10:12:43;;;;;;;4.97;1.90;;;;;;;3.12;63.11;100209.63;4955674;28;20708;-81
2023/03/12 10:15:24;;;;;;;1.67;1.40;;;;;;;3.16;63.61;100205.09;4954368;28;20213;-80
2023/03/12 10:18:05;;;;;;;4.97;1.70;;;;;;;3.19;63.65;100201.50;4954631;28;20224;-82
2023/03/12 10:20:50;;;;;;;3.97;1.30;;;;;;;3.23;63.94;100209.16;4956002;28;20635;-82
2023/03/12 10:23:26;;;;;;;3.30;1.30;;;;;;;3.29;64.00;100208.94;4953957;28;20205;-82
2023/03/12 10:25:58;;;;;;;3.57;1.70;;;;;;;3.32;64.65;100205.31;4955402;28;20300;-82
2023/03/12 10:28:30;;;;;;;4.03;1.60;;;;;;;3.36;64.07;100202.50;4955359;28;20236;-82
2023/03/12 10:31:00;;;;;;;1.77;1.60;;;;;;;3.39;64.03;100204.16;4949940;28;20201;-82
2023/03/12 10:33:39;;;;;;;3.50;1.77;;;;;;;3.36;64.50;100209.56;4956287;28;20220;-82
2023/03/12 10:36:15;;;;;;;1.87;1.63;;;;;;;3.34;64.47;100191.19;4952140;28;20213;-81
2023/03/12 10:38:42;;;;;;;3.83;1.53;;;;;;;3.32;64.43;100186.91;4954152;28;20228;-81
2023/03/12 10:41:15;;;;;;;1.73;1.53;;;;;;;3.30;65.10;100178.22;4954324;28;20213;-82
2023/03/12 10:43:42;;;;;;;3.93;2.20;;;;;;;3.29;65.86;100179.97;4956083;28;20202;-83
2023/03/12 10:46:30;;;;;;;6.27;1.93;;;;;;;3.25;66.22;100188.06;4958073;28;20205;-81
2023/03/12 10:49:22;;;;;;;3.70;1.70;;;;;;;3.21;66.93;100176.81;4960418;28;20213;-83
2023/03/12 10:52:00;;;;;;;4.17;1.93;;;;;;;3.13;67.00;100171.88;4954873;28;20205;-82
2023/03/12 10:54:31;;;;;;;2.37;1.77;;;;;;;3.07;68.22;100173.88;4956590;28;20236;-82
2023/03/12 10:56:58;;;;;;;4.90;1.90;;;;;;;3.00;69.09;100177.69;4955586;28;20241;-82
2023/03/12 10:59:29;;;;;;;3.80;1.70;;;;;;;2.92;69.08;100169.22;4952934;28;20202;-83
2023/03/12 11:01:56;;;;;;;3.70;1.90;;;;;;;2.88;69.55;100167.63;4956657;28;20597;-83
2023/03/12 11:04:25;;;;;;;3.67;1.83;;;;;;;2.85;69.81;100158.13;4957120;28;20289;-82
2023/03/12 11:07:18;;;;;;;4.73;2.77;;;;;;;2.82;70.48;100165.25;4957119;28;20625;-82
2023/03/12 11:10:12;;;;;;;4.73;2.13;;;;;;;2.83;71.91;100162.56;4958122;28;20225;-82
2023/03/12 11:12:39;;;;;;;4.20;2.17;;;;;;;2.87;71.82;100168.53;4959156;28;20213;-83
2023/03/12 11:15:19;;;;;;;4.53;1.90;;;;;;;2.84;73.10;100168.69;4956808;28;20235;-82
2023/03/12 11:17:45;;;;;;;4.73;2.63;;;;;;;2.78;72.75;100160.13;4956453;28;20240;-82
2023/03/12 11:20:29;;;;;;;4.60;2.70;;;;;;;2.79;73.62;100160.97;4958250;29;20240;-82
2023/03/12 11:22:56;;;;;;;3.00;2.60;;;;;;;2.77;73.77;100165.44;4956841;28;20205;-83
2023/03/12 11:25:26;;;;;;;4.23;2.50;;;;;;;2.76;73.89;100161.94;4958059;28;20268;-83
2023/03/12 11:27:55;;;;;;;6.50;2.87;;;;;;;2.77;74.39;100171.56;4958164;28;20252;-82
2023/03/12 11:30:26;;;;;;;4.70;3.00;;;;;;;2.74;75.21;100162.91;4952353;28;20220;-82
2023/03/12 11:32:54;;;;;;;5.87;3.47;;;;;;;2.76;75.54;100147.94;4946488;28;20205;-82
2023/03/12 11:35:38;;;;;;;5.17;2.77;;;;;;;2.76;75.68;100142.69;4952537;28;20216;-82